sensor_id;sensor_type;location;lat;lon;timestamp;temperature;humidity
38380;DHT22;38377;47.418;18.882;2024-01-15T00:02:24;-1.10;99.90
38380;DHT22;38377;47.418;18.882;2024-01-15T00:04:49;-1.10;99.90
38380;DHT22;38377;47.418;18.882;2024-01-15T00:07:15;-1.00;99.90
38380;DHT22;38377;47.418;18.882;2024-01-15T00:09:40;-1.00;99.90
38380;DHT22;38377;47.418;18.882;2024-01-15T00:12:06;-1.00;99.90
38380;DHT22;38377;47.418;18.882;2024-01-15T00:14:32;-1.00;99.90
38380;DHT22;38377;47.418;18.882;2024-01-15T00:16:57;-1.00;99.90
38380;DHT22;38377;47.418;18.882;2024-01-15T00:19:23;-1.00;99.90
38380;DHT22;38377;47.418;18.882;2024-01-15T00:21:49;-1.00;99.90
38380;DHT22;38377;47.418;18.882;2024-01-15T00:24:15;-1.00;99.90
38380;DHT22;38377;47.418;18.882;2024-01-15T00:26:41;-1.00;99.90
38380;DHT22;38377;47.418;18.882;2024-01-15T00:29:07;-1.00;99.90
38380;DHT22;38377;47.418;18.882;2024-01-15T00:31:33;-1.00;99.90
38380;DHT22;38377;47.418;18.882;2024-01-15T00:33:59;-1.00;99.90
38380;DHT22;38377;47.418;18.882;2024-01-15T00:36:24;-1.10;99.90
38380;DHT22;38377;47.418;18.882;2024-01-15T00:38:50;-1.10;99.90
38380;DHT22;38377;47.418;18.882;2024-01-15T00:41:16;-1.20;99.90
38380;DHT22;38377;47.418;18.882;2024-01-15T00:43:46;-1.20;99.90
38380;DHT22;38377;47.418;18.882;2024-01-15T00:46:14;-1.30;99.90
38380;DHT22;38377;47.418;18.882;2024-01-15T00:48:40;-1.40;99.90
38380;DHT22;38377;47.418;18.882;2024-01-15T00:51:05;-1.40;99.90
38380;DHT22;38377;47.418;18.882;2024-01-15T00:53:31;-1.40;99.90
38380;DHT22;38377;47.418;18.882;2024-01-15T00:55:57;-1.50;99.90
38380;DHT22;38377;47.418;18.882;2024-01-15T00:58:23;-1.50;99.90
38380;DHT22;38377;47.418;18.882;2024-01-15T01:00:48;-1.50;99.90
38380;DHT22;38377;47.418;18.882;2024-01-15T01:03:14;-1.60;99.90
38380;DHT22;38377;47.418;18.882;2024-01-15T01:05:39;-1.60;99.90
38380;DHT22;38377;47.418;18.882;2024-01-15T01:08:05;-1.70;99.90
38380;DHT22;38377;47.418;18.882;2024-01-15T01:10:31;-1.70;99.90
38380;DHT22;38377;47.418;18.882;2024-01-15T01:12:56;-1.60;99.90
38380;DHT22;38377;47.418;18.882;2024-01-15T01:15:22;-1.70;99.90
38380;DHT22;38377;47.418;18.882;2024-01-15T01:17:48;-1.70;99.90
38380;DHT22;38377;47.418;18.882;2024-01-15T01:20:13;-1.70;99.90
38380;DHT22;38377;47.418;18.882;2024-01-15T01:22:40;-1.70;99.90
38380;DHT22;38377;47.418;18.882;2024-01-15T01:25:06;-1.80;99.90
38380;DHT22;38377;47.418;18.882;2024-01-15T01:27:32;-1.80;99.90
38380;DHT22;38377;47.418;18.882;2024-01-15T01:29:57;-1.80;99.90
38380;DHT22;38377;47.418;18.882;2024-01-15T01:32:23;-1.90;99.90
38380;DHT22;38377;47.418;18.882;2024-01-15T01:34:49;-2.00;99.90
38380;DHT22;38377;47.418;18.882;2024-01-15T01:37:14;-2.10;99.90
38380;DHT22;38377;47.418;18.882;2024-01-15T01:39:41;-2.10;99.90
38380;DHT22;38377;47.418;18.882;2024-01-15T01:42:07;-2.20;99.90
38380;DHT22;38377;47.418;18.882;2024-01-15T01:44:33;-2.20;99.90
38380;DHT22;38377;47.418;18.882;2024-01-15T01:46:59;-2.30;99.90
38380;DHT22;38377;47.418;18.882;2024-01-15T01:49:26;-2.30;99.90
38380;DHT22;38377;47.418;18.882;2024-01-15T01:51:52;-2.30;99.90
38380;DHT22;38377;47.418;18.882;2024-01-15T01:54:19;-2.30;99.90
38380;DHT22;38377;47.418;18.882;2024-01-15T01:56:47;-2.30;99.90
38380;DHT22;38377;47.418;18.882;2024-01-15T01:59:14;-2.30;99.90
38380;DHT22;38377;47.418;18.882;2024-01-15T02:01:40;-2.30;99.90
38380;DHT22;38377;47.418;18.882;2024-01-15T02:04:06;-2.30;99.90
38380;DHT22;38377;47.418;18.882;2024-01-15T02:06:32;-2.30;99.90
38380;DHT22;38377;47.418;18.882;2024-01-15T02:08:58;-2.30;99.90
38380;DHT22;38377;47.418;18.882;2024-01-15T02:11:24;-2.40;99.90
38380;DHT22;38377;47.418;18.882;2024-01-15T02:13:50;-2.40;99.90
38380;DHT22;38377;47.418;18.882;2024-01-15T02:16:15;-2.50;99.90
38380;DHT22;38377;47.418;18.882;2024-01-15T02:18:46;-2.50;99.90
38380;DHT22;38377;47.418;18.882;2024-01-15T02:21:12;-2.60;99.90
38380;DHT22;38377;47.418;18.882;2024-01-15T02:23:38;-2.70;99.90
38380;DHT22;38377;47.418;18.882;2024-01-15T02:26:05;-2.80;99.90
38380;DHT22;38377;47.418;18.882;2024-01-15T02:28:31;-2.90;99.90
38380;DHT22;38377;47.418;18.882;2024-01-15T02:30:57;-3.00;99.90
38380;DHT22;38377;47.418;18.882;2024-01-15T02:33:23;-3.00;99.90
38380;DHT22;38377;47.418;18.882;2024-01-15T02:35:48;-3.20;99.90
38380;DHT22;38377;47.418;18.882;2024-01-15T02:38:15;-3.20;99.90
38380;DHT22;38377;47.418;18.882;2024-01-15T02:40:42;-3.20;99.90
38380;DHT22;38377;47.418;18.882;2024-01-15T02:43:08;-3.30;99.90
38380;DHT22;38377;47.418;18.882;2024-01-15T02:45:34;-3.30;99.90
38380;DHT22;38377;47.418;18.882;2024-01-15T02:47:59;-3.40;99.90
38380;DHT22;38377;47.418;18.882;2024-01-15T02:50:25;-3.50;99.90
38380;DHT22;38377;47.418;18.882;2024-01-15T02:52:50;-3.50;99.90
38380;DHT22;38377;47.418;18.882;2024-01-15T02:55:16;-3.50;99.90
38380;DHT22;38377;47.418;18.882;2024-01-15T02:57:41;-3.60;99.90
38380;DHT22;38377;47.418;18.882;2024-01-15T03:00:07;-3.60;99.90
38380;DHT22;38377;47.418;18.882;2024-01-15T03:02:36;-3.60;99.90
38380;DHT22;38377;47.418;18.882;2024-01-15T03:05:02;-3.70;99.90
38380;DHT22;38377;47.418;18.882;2024-01-15T03:07:28;-3.80;99.90
38380;DHT22;38377;47.418;18.882;2024-01-15T03:09:53;-3.80;99.90
38380;DHT22;38377;47.418;18.882;2024-01-15T03:12:19;-3.80;99.90
38380;DHT22;38377;47.418;18.882;2024-01-15T03:14:45;-3.80;99.90
38380;DHT22;38377;47.418;18.882;2024-01-15T03:17:10;-3.90;99.90
38380;DHT22;38377;47.418;18.882;2024-01-15T03:19:37;-4.00;99.90
38380;DHT22;38377;47.418;18.882;2024-01-15T03:22:03;-4.00;99.90
38380;DHT22;38377;47.418;18.882;2024-01-15T03:24:29;-4.10;99.90
38380;DHT22;38377;47.418;18.882;2024-01-15T03:26:55;-4.10;99.90
38380;DHT22;38377;47.418;18.882;2024-01-15T03:29:21;-4.20;99.90
38380;DHT22;38377;47.418;18.882;2024-01-15T03:31:47;-4.20;99.90
38380;DHT22;38377;47.418;18.882;2024-01-15T03:34:12;-4.20;99.90
38380;DHT22;38377;47.418;18.882;2024-01-15T03:36:38;-4.10;99.90
38380;DHT22;38377;47.418;18.882;2024-01-15T03:39:04;-4.10;99.90
38380;DHT22;38377;47.418;18.882;2024-01-15T03:41:29;-4.10;99.90
38380;DHT22;38377;47.418;18.882;2024-01-15T03:43:55;-4.10;99.90
38380;DHT22;38377;47.418;18.882;2024-01-15T03:46:20;-4.10;99.90
38380;DHT22;38377;47.418;18.882;2024-01-15T03:48:46;-4.00;99.90
38380;DHT22;38377;47.418;18.882;2024-01-15T03:51:11;-4.00;99.90
38380;DHT22;38377;47.418;18.882;2024-01-15T03:53:38;-4.00;99.90
38380;DHT22;38377;47.418;18.882;2024-01-15T03:56:04;-4.00;99.90
38380;DHT22;38377;47.418;18.882;2024-01-15T03:58:30;-4.10;99.90
38380;DHT22;38377;47.418;18.882;2024-01-15T04:00:55;-4.10;99.90
38380;DHT22;38377;47.418;18.882;2024-01-15T04:03:21;-4.10;99.90
38380;DHT22;38377;47.418;18.882;2024-01-15T04:05:46;-4.10;99.90
38380;DHT22;38377;47.418;18.882;2024-01-15T04:08:12;-4.10;99.90
38380;DHT22;38377;47.418;18.882;2024-01-15T04:10:38;-4.10;99.90
38380;DHT22;38377;47.418;18.882;2024-01-15T04:13:03;-4.20;99.90
38380;DHT22;38377;47.418;18.882;2024-01-15T04:15:29;-4.20;99.90
38380;DHT22;38377;47.418;18.882;2024-01-15T04:17:55;-4.20;99.90
38380;DHT22;38377;47.418;18.882;2024-01-15T04:20:20;-4.20;99.90
38380;DHT22;38377;47.418;18.882;2024-01-15T04:22:46;-4.20;99.90
38380;DHT22;38377;47.418;18.882;2024-01-15T04:25:11;-4.30;99.90
38380;DHT22;38377;47.418;18.882;2024-01-15T04:27:40;-4.30;99.90
38380;DHT22;38377;47.418;18.882;2024-01-15T04:30:06;-4.30;99.90
38380;DHT22;38377;47.418;18.882;2024-01-15T04:32:32;-4.30;99.90
38380;DHT22;38377;47.418;18.882;2024-01-15T04:34:57;-4.20;99.90
38380;DHT22;38377;47.418;18.882;2024-01-15T04:37:23;-4.30;99.90
38380;DHT22;38377;47.418;18.882;2024-01-15T04:39:48;-4.40;99.90
38380;DHT22;38377;47.418;18.882;2024-01-15T04:42:14;-4.40;99.90
38380;DHT22;38377;47.418;18.882;2024-01-15T04:44:39;-4.40;99.90
38380;DHT22;38377;47.418;18.882;2024-01-15T04:47:05;-4.40;99.90
38380;DHT22;38377;47.418;18.882;2024-01-15T04:49:31;-4.40;99.90
38380;DHT22;38377;47.418;18.882;2024-01-15T04:51:56;-4.40;99.90
38380;DHT22;38377;47.418;18.882;2024-01-15T04:54:22;-4.40;99.90
38380;DHT22;38377;47.418;18.882;2024-01-15T04:56:48;-4.40;99.90
38380;DHT22;38377;47.418;18.882;2024-01-15T04:59:16;-4.30;99.90
38380;DHT22;38377;47.418;18.882;2024-01-15T05:01:41;-4.40;99.90
38380;DHT22;38377;47.418;18.882;2024-01-15T05:04:07;-4.40;99.90
38380;DHT22;38377;47.418;18.882;2024-01-15T05:06:33;-4.40;99.90
38380;DHT22;38377;47.418;18.882;2024-01-15T05:08:58;-4.50;99.90
38380;DHT22;38377;47.418;18.882;2024-01-15T05:11:24;-4.50;99.90
38380;DHT22;38377;47.418;18.882;2024-01-15T05:13:50;-4.50;99.90
38380;DHT22;38377;47.418;18.882;2024-01-15T05:16:15;-4.50;99.90
38380;DHT22;38377;47.418;18.882;2024-01-15T05:18:41;-4.60;99.90
38380;DHT22;38377;47.418;18.882;2024-01-15T05:21:08;-4.60;99.90
38380;DHT22;38377;47.418;18.882;2024-01-15T05:23:34;-4.60;99.90
38380;DHT22;38377;47.418;18.882;2024-01-15T05:25:59;-4.60;99.90
38380;DHT22;38377;47.418;18.882;2024-01-15T05:28:25;-4.60;99.90
38380;DHT22;38377;47.418;18.882;2024-01-15T05:30:50;-4.50;99.90
38380;DHT22;38377;47.418;18.882;2024-01-15T05:33:16;-4.30;99.90
38380;DHT22;38377;47.418;18.882;2024-01-15T05:35:42;-4.30;99.90
38380;DHT22;38377;47.418;18.882;2024-01-15T05:38:08;-4.10;99.90
38380;DHT22;38377;47.418;18.882;2024-01-15T05:40:34;-4.00;99.90
38380;DHT22;38377;47.418;18.882;2024-01-15T05:42:59;-3.80;99.90
38380;DHT22;38377;47.418;18.882;2024-01-15T05:45:30;-3.70;99.90
38380;DHT22;38377;47.418;18.882;2024-01-15T05:47:55;-3.80;99.90
38380;DHT22;38377;47.418;18.882;2024-01-15T05:50:21;-3.80;99.90
38380;DHT22;38377;47.418;18.882;2024-01-15T05:52:47;-3.60;99.90
38380;DHT22;38377;47.418;18.882;2024-01-15T05:55:13;-3.40;99.90
38380;DHT22;38377;47.418;18.882;2024-01-15T05:57:39;-3.10;99.90
38380;DHT22;38377;47.418;18.882;2024-01-15T06:00:05;-2.80;99.90
38380;DHT22;38377;47.418;18.882;2024-01-15T06:02:30;-2.70;99.90
38380;DHT22;38377;47.418;18.882;2024-01-15T06:04:56;-2.70;99.90
38380;DHT22;38377;47.418;18.882;2024-01-15T06:07:22;-2.70;99.90
38380;DHT22;38377;47.418;18.882;2024-01-15T06:09:48;-2.70;99.90
38380;DHT22;38377;47.418;18.882;2024-01-15T06:12:14;-2.70;99.90
38380;DHT22;38377;47.418;18.882;2024-01-15T06:14:39;-2.70;99.90
38380;DHT22;38377;47.418;18.882;2024-01-15T06:17:06;-2.80;99.90
38380;DHT22;38377;47.418;18.882;2024-01-15T06:19:32;-2.80;99.90
38380;DHT22;38377;47.418;18.882;2024-01-15T06:21:57;-2.90;99.90
38380;DHT22;38377;47.418;18.882;2024-01-15T06:24:23;-3.00;99.90
38380;DHT22;38377;47.418;18.882;2024-01-15T06:26:48;-3.10;99.90
38380;DHT22;38377;47.418;18.882;2024-01-15T06:29:14;-3.10;99.90
38380;DHT22;38377;47.418;18.882;2024-01-15T06:31:40;-3.10;99.90
38380;DHT22;38377;47.418;18.882;2024-01-15T06:34:05;-3.10;99.90
38380;DHT22;38377;47.418;18.882;2024-01-15T06:36:31;-3.10;99.90
38380;DHT22;38377;47.418;18.882;2024-01-15T06:38:56;-3.10;99.90
38380;DHT22;38377;47.418;18.882;2024-01-15T06:41:22;-3.10;99.90
38380;DHT22;38377;47.418;18.882;2024-01-15T06:43:48;-2.90;99.90
38380;DHT22;38377;47.418;18.882;2024-01-15T06:46:23;-2.70;99.90
38380;DHT22;38377;47.418;18.882;2024-01-15T06:48:49;-2.60;99.90
38380;DHT22;38377;47.418;18.882;2024-01-15T06:51:15;-2.40;99.90
38380;DHT22;38377;47.418;18.882;2024-01-15T06:53:41;-2.20;99.90
38380;DHT22;38377;47.418;18.882;2024-01-15T06:56:07;-2.10;99.90
38380;DHT22;38377;47.418;18.882;2024-01-15T06:58:32;-2.00;99.90
38380;DHT22;38377;47.418;18.882;2024-01-15T07:00:58;-1.90;99.90
38380;DHT22;38377;47.418;18.882;2024-01-15T07:03:24;-1.70;99.90
38380;DHT22;38377;47.418;18.882;2024-01-15T07:05:50;-1.60;99.90
38380;DHT22;38377;47.418;18.882;2024-01-15T07:08:15;-1.50;99.90
38380;DHT22;38377;47.418;18.882;2024-01-15T07:10:41;-1.50;99.90
38380;DHT22;38377;47.418;18.882;2024-01-15T07:13:06;-1.40;99.90
38380;DHT22;38377;47.418;18.882;2024-01-15T07:15:32;-1.40;99.90
38380;DHT22;38377;47.418;18.882;2024-01-15T07:18:00;-1.30;99.90
38380;DHT22;38377;47.418;18.882;2024-01-15T07:20:26;-1.30;99.90
38380;DHT22;38377;47.418;18.882;2024-01-15T07:22:51;-1.20;99.90
38380;DHT22;38377;47.418;18.882;2024-01-15T07:25:17;-1.20;99.90
38380;DHT22;38377;47.418;18.882;2024-01-15T07:27:42;-1.20;99.90
38380;DHT22;38377;47.418;18.882;2024-01-15T07:30:11;-1.10;99.90
38380;DHT22;38377;47.418;18.882;2024-01-15T07:32:37;-1.00;99.90
38380;DHT22;38377;47.418;18.882;2024-01-15T07:35:03;-1.00;99.90
38380;DHT22;38377;47.418;18.882;2024-01-15T07:37:29;-0.90;99.90
38380;DHT22;38377;47.418;18.882;2024-01-15T07:39:54;-0.90;99.90
38380;DHT22;38377;47.418;18.882;2024-01-15T07:42:22;-0.90;99.90
38380;DHT22;38377;47.418;18.882;2024-01-15T07:44:48;-0.90;99.90
38380;DHT22;38377;47.418;18.882;2024-01-15T07:47:13;-0.90;99.90
38380;DHT22;38377;47.418;18.882;2024-01-15T07:49:39;-0.90;99.90
38380;DHT22;38377;47.418;18.882;2024-01-15T07:52:05;-0.80;99.90
38380;DHT22;38377;47.418;18.882;2024-01-15T07:54:31;-0.80;99.90
38380;DHT22;38377;47.418;18.882;2024-01-15T07:57:01;-0.70;99.90
38380;DHT22;38377;47.418;18.882;2024-01-15T07:59:28;-0.60;99.90
38380;DHT22;38377;47.418;18.882;2024-01-15T08:01:54;-0.60;99.90
38380;DHT22;38377;47.418;18.882;2024-01-15T08:04:20;-0.50;99.90
38380;DHT22;38377;47.418;18.882;2024-01-15T08:06:47;-0.40;99.90
38380;DHT22;38377;47.418;18.882;2024-01-15T08:09:13;-0.20;99.90
38380;DHT22;38377;47.418;18.882;2024-01-15T08:11:42;0.00;99.90
38380;DHT22;38377;47.418;18.882;2024-01-15T08:14:08;0.20;99.90
38380;DHT22;38377;47.418;18.882;2024-01-15T08:16:35;0.40;99.90
38380;DHT22;38377;47.418;18.882;2024-01-15T08:19:00;0.50;99.90
38380;DHT22;38377;47.418;18.882;2024-01-15T08:21:28;0.60;99.90
38380;DHT22;38377;47.418;18.882;2024-01-15T08:23:57;0.80;99.90
38380;DHT22;38377;47.418;18.882;2024-01-15T08:26:23;0.80;99.90
38380;DHT22;38377;47.418;18.882;2024-01-15T08:28:49;0.90;99.90
38380;DHT22;38377;47.418;18.882;2024-01-15T08:31:15;1.00;99.90
38380;DHT22;38377;47.418;18.882;2024-01-15T08:33:40;1.10;99.90
38380;DHT22;38377;47.418;18.882;2024-01-15T08:36:06;1.20;99.90
38380;DHT22;38377;47.418;18.882;2024-01-15T08:38:32;1.30;99.90
38380;DHT22;38377;47.418;18.882;2024-01-15T08:40:57;1.40;99.90
38380;DHT22;38377;47.418;18.882;2024-01-15T08:43:28;1.40;99.90
38380;DHT22;38377;47.418;18.882;2024-01-15T08:45:53;1.50;99.90
38380;DHT22;38377;47.418;18.882;2024-01-15T08:48:21;1.50;99.90
38380;DHT22;38377;47.418;18.882;2024-01-15T08:50:47;1.60;99.90
38380;DHT22;38377;47.418;18.882;2024-01-15T08:53:13;1.60;99.90
38380;DHT22;38377;47.418;18.882;2024-01-15T08:55:39;1.80;99.90
38380;DHT22;38377;47.418;18.882;2024-01-15T08:58:05;1.80;99.80
38380;DHT22;38377;47.418;18.882;2024-01-15T09:00:31;1.90;99.10
38380;DHT22;38377;47.418;18.882;2024-01-15T09:02:57;2.00;98.70
38380;DHT22;38377;47.418;18.882;2024-01-15T09:05:22;1.90;98.60
38380;DHT22;38377;47.418;18.882;2024-01-15T09:07:48;1.80;98.70
38380;DHT22;38377;47.418;18.882;2024-01-15T09:10:16;1.90;98.80
38380;DHT22;38377;47.418;18.882;2024-01-15T09:12:42;2.10;98.30
38380;DHT22;38377;47.418;18.882;2024-01-15T09:15:08;2.10;98.40
38380;DHT22;38377;47.418;18.882;2024-01-15T09:17:33;2.20;98.00
38380;DHT22;38377;47.418;18.882;2024-01-15T09:20:01;2.30;97.70
38380;DHT22;38377;47.418;18.882;2024-01-15T09:22:27;2.40;97.30
38380;DHT22;38377;47.418;18.882;2024-01-15T09:24:52;2.40;97.30
38380;DHT22;38377;47.418;18.882;2024-01-15T09:27:20;2.40;97.10
38380;DHT22;38377;47.418;18.882;2024-01-15T09:29:46;2.50;96.80
38380;DHT22;38377;47.418;18.882;2024-01-15T09:32:12;2.60;96.80
38380;DHT22;38377;47.418;18.882;2024-01-15T09:34:38;2.60;96.60
38380;DHT22;38377;47.418;18.882;2024-01-15T09:37:04;2.60;96.60
38380;DHT22;38377;47.418;18.882;2024-01-15T09:39:30;2.70;96.40
38380;DHT22;38377;47.418;18.882;2024-01-15T09:41:56;2.80;95.70
38380;DHT22;38377;47.418;18.882;2024-01-15T09:44:23;2.90;95.90
38380;DHT22;38377;47.418;18.882;2024-01-15T09:46:49;2.90;96.90
38380;DHT22;38377;47.418;18.882;2024-01-15T09:49:18;2.90;96.00
38380;DHT22;38377;47.418;18.882;2024-01-15T09:51:44;3.00;95.60
38380;DHT22;38377;47.418;18.882;2024-01-15T09:54:09;3.10;95.30
38380;DHT22;38377;47.418;18.882;2024-01-15T09:56:36;3.20;95.10
38380;DHT22;38377;47.418;18.882;2024-01-15T09:59:02;3.10;95.40
38380;DHT22;38377;47.418;18.882;2024-01-15T10:01:31;3.20;95.20
38380;DHT22;38377;47.418;18.882;2024-01-15T10:03:58;3.40;94.70
38380;DHT22;38377;47.418;18.882;2024-01-15T10:06:26;3.40;94.20
38380;DHT22;38377;47.418;18.882;2024-01-15T10:08:54;3.50;94.10
38380;DHT22;38377;47.418;18.882;2024-01-15T10:11:19;3.60;93.70
38380;DHT22;38377;47.418;18.882;2024-01-15T10:13:46;3.60;93.90
38380;DHT22;38377;47.418;18.882;2024-01-15T10:16:12;3.80;93.20
38380;DHT22;38377;47.418;18.882;2024-01-15T10:18:38;3.90;93.40
38380;DHT22;38377;47.418;18.882;2024-01-15T10:21:06;4.00;93.10
38380;DHT22;38377;47.418;18.882;2024-01-15T10:23:32;4.10;92.40
38380;DHT22;38377;47.418;18.882;2024-01-15T10:25:58;4.20;91.80
38380;DHT22;38377;47.418;18.882;2024-01-15T10:28:26;4.30;91.00
38380;DHT22;38377;47.418;18.882;2024-01-15T10:30:59;4.30;91.60
38380;DHT22;38377;47.418;18.882;2024-01-15T10:33:25;4.30;91.20
38380;DHT22;38377;47.418;18.882;2024-01-15T10:35:53;4.40;90.50
38380;DHT22;38377;47.418;18.882;2024-01-15T10:38:23;4.30;90.40
38380;DHT22;38377;47.418;18.882;2024-01-15T10:40:53;4.30;90.10
38380;DHT22;38377;47.418;18.882;2024-01-15T10:43:19;4.40;90.30
38380;DHT22;38377;47.418;18.882;2024-01-15T10:45:46;4.50;90.10
38380;DHT22;38377;47.418;18.882;2024-01-15T10:48:12;4.50;89.50
38380;DHT22;38377;47.418;18.882;2024-01-15T10:50:38;4.60;89.20
38380;DHT22;38377;47.418;18.882;2024-01-15T10:53:05;4.70;88.90
38380;DHT22;38377;47.418;18.882;2024-01-15T10:55:31;4.80;88.30
38380;DHT22;38377;47.418;18.882;2024-01-15T10:57:59;4.80;88.10
38380;DHT22;38377;47.418;18.882;2024-01-15T11:00:25;4.80;85.70
38380;DHT22;38377;47.418;18.882;2024-01-15T11:02:51;4.90;85.30
38380;DHT22;38377;47.418;18.882;2024-01-15T11:05:21;4.70;85.50
38380;DHT22;38377;47.418;18.882;2024-01-15T11:07:48;4.80;85.80
38380;DHT22;38377;47.418;18.882;2024-01-15T11:16:09;4.80;86.20
38380;DHT22;38377;47.418;18.882;2024-01-15T11:23:44;4.80;86.50
38380;DHT22;38377;47.418;18.882;2024-01-15T11:26:29;4.80;86.20
38380;DHT22;38377;47.418;18.882;2024-01-15T11:28:56;4.90;85.80
38380;DHT22;38377;47.418;18.882;2024-01-15T11:34:10;4.80;86.60
38380;DHT22;38377;47.418;18.882;2024-01-15T11:42:02;4.90;85.40
38380;DHT22;38377;47.418;18.882;2024-01-15T11:44:30;5.00;85.20
38380;DHT22;38377;47.418;18.882;2024-01-15T11:47:04;5.10;85.20
38380;DHT22;38377;47.418;18.882;2024-01-15T11:49:45;5.00;85.20
38380;DHT22;38377;47.418;18.882;2024-01-15T11:52:17;5.10;85.90
38380;DHT22;38377;47.418;18.882;2024-01-15T11:55:19;5.10;84.80
38380;DHT22;38377;47.418;18.882;2024-01-15T11:57:49;5.10;84.60
38380;DHT22;38377;47.418;18.882;2024-01-15T12:00:15;5.10;85.60
38380;DHT22;38377;47.418;18.882;2024-01-15T12:02:42;5.00;85.00
38380;DHT22;38377;47.418;18.882;2024-01-15T12:05:09;5.10;84.60
38380;DHT22;38377;47.418;18.882;2024-01-15T12:07:35;5.00;85.50
38380;DHT22;38377;47.418;18.882;2024-01-15T12:10:02;5.00;85.20
38380;DHT22;38377;47.418;18.882;2024-01-15T12:12:42;5.10;84.80
38380;DHT22;38377;47.418;18.882;2024-01-15T12:15:10;5.30;83.80
38380;DHT22;38377;47.418;18.882;2024-01-15T12:17:35;5.20;83.00
38380;DHT22;38377;47.418;18.882;2024-01-15T12:20:06;5.10;82.70
38380;DHT22;38377;47.418;18.882;2024-01-15T12:22:31;5.20;83.20
38380;DHT22;38377;47.418;18.882;2024-01-15T12:24:57;5.20;82.90
38380;DHT22;38377;47.418;18.882;2024-01-15T12:27:23;5.20;82.00
38380;DHT22;38377;47.418;18.882;2024-01-15T12:29:49;5.20;82.80
38380;DHT22;38377;47.418;18.882;2024-01-15T12:32:17;5.20;82.00
38380;DHT22;38377;47.418;18.882;2024-01-15T12:34:43;5.20;82.10
38380;DHT22;38377;47.418;18.882;2024-01-15T12:37:09;5.10;82.40
38380;DHT22;38377;47.418;18.882;2024-01-15T12:39:36;5.20;81.70
38380;DHT22;38377;47.418;18.882;2024-01-15T12:42:02;5.10;82.10
38380;DHT22;38377;47.418;18.882;2024-01-15T12:44:29;5.20;81.90
38380;DHT22;38377;47.418;18.882;2024-01-15T12:46:55;5.10;81.90
38380;DHT22;38377;47.418;18.882;2024-01-15T12:49:21;5.10;82.20
38380;DHT22;38377;47.418;18.882;2024-01-15T12:51:57;5.00;82.50
38380;DHT22;38377;47.418;18.882;2024-01-15T12:54:23;5.00;82.30
38380;DHT22;38377;47.418;18.882;2024-01-15T12:56:49;5.00;82.10
38380;DHT22;38377;47.418;18.882;2024-01-15T12:59:15;5.00;82.80
38380;DHT22;38377;47.418;18.882;2024-01-15T13:01:41;4.90;82.90
38380;DHT22;38377;47.418;18.882;2024-01-15T13:04:08;4.90;83.10
38380;DHT22;38377;47.418;18.882;2024-01-15T13:06:34;4.80;83.40
38380;DHT22;38377;47.418;18.882;2024-01-15T13:09:00;4.90;83.80
38380;DHT22;38377;47.418;18.882;2024-01-15T13:11:27;4.90;84.50
38380;DHT22;38377;47.418;18.882;2024-01-15T13:13:55;4.90;83.70
38380;DHT22;38377;47.418;18.882;2024-01-15T13:16:21;4.90;83.70
38380;DHT22;38377;47.418;18.882;2024-01-15T13:18:46;4.90;83.70
38380;DHT22;38377;47.418;18.882;2024-01-15T13:21:12;4.80;84.40
38380;DHT22;38377;47.418;18.882;2024-01-15T13:23:38;4.80;84.10
38380;DHT22;38377;47.418;18.882;2024-01-15T13:26:04;4.80;84.20
38380;DHT22;38377;47.418;18.882;2024-01-15T13:28:30;4.80;84.60
38380;DHT22;38377;47.418;18.882;2024-01-15T13:30:56;4.80;84.60
38380;DHT22;38377;47.418;18.882;2024-01-15T13:33:21;4.80;84.10
38380;DHT22;38377;47.418;18.882;2024-01-15T13:35:47;4.80;84.60
38380;DHT22;38377;47.418;18.882;2024-01-15T13:38:15;4.80;84.30
38380;DHT22;38377;47.418;18.882;2024-01-15T13:40:41;4.80;84.30
38380;DHT22;38377;47.418;18.882;2024-01-15T13:43:06;4.70;84.70
38380;DHT22;38377;47.418;18.882;2024-01-15T13:45:34;4.70;84.10
38380;DHT22;38377;47.418;18.882;2024-01-15T13:48:01;4.80;83.10
38380;DHT22;38377;47.418;18.882;2024-01-15T13:50:31;4.80;83.70
38380;DHT22;38377;47.418;18.882;2024-01-15T13:55:32;4.70;84.80
38380;DHT22;38377;47.418;18.882;2024-01-15T13:57:57;4.60;84.60
38380;DHT22;38377;47.418;18.882;2024-01-15T14:00:23;4.60;84.70
38380;DHT22;38377;47.418;18.882;2024-01-15T14:02:49;4.60;85.10
38380;DHT22;38377;47.418;18.882;2024-01-15T14:05:14;4.60;85.00
38380;DHT22;38377;47.418;18.882;2024-01-15T14:07:44;4.50;85.00
38380;DHT22;38377;47.418;18.882;2024-01-15T14:10:10;4.40;84.80
38380;DHT22;38377;47.418;18.882;2024-01-15T14:12:35;4.20;86.30
38380;DHT22;38377;47.418;18.882;2024-01-15T14:15:04;4.20;85.90
38380;DHT22;38377;47.418;18.882;2024-01-15T14:17:32;4.10;86.70
38380;DHT22;38377;47.418;18.882;2024-01-15T14:19:58;4.20;86.10
38380;DHT22;38377;47.418;18.882;2024-01-15T14:22:23;4.20;85.70
38380;DHT22;38377;47.418;18.882;2024-01-15T14:24:49;4.20;85.40
38380;DHT22;38377;47.418;18.882;2024-01-15T14:27:16;4.20;86.30
38380;DHT22;38377;47.418;18.882;2024-01-15T14:29:42;4.20;85.80
38380;DHT22;38377;47.418;18.882;2024-01-15T14:32:07;4.10;86.40
38380;DHT22;38377;47.418;18.882;2024-01-15T14:34:33;4.00;86.40
38380;DHT22;38377;47.418;18.882;2024-01-15T14:37:01;3.90;86.90
38380;DHT22;38377;47.418;18.882;2024-01-15T14:39:26;3.90;87.30
38380;DHT22;38377;47.418;18.882;2024-01-15T14:41:52;3.80;87.40
38380;DHT22;38377;47.418;18.882;2024-01-15T14:44:18;3.70;88.00
38380;DHT22;38377;47.418;18.882;2024-01-15T14:46:46;3.60;88.80
38380;DHT22;38377;47.418;18.882;2024-01-15T14:49:12;3.60;88.40
38380;DHT22;38377;47.418;18.882;2024-01-15T14:51:37;3.50;88.60
38380;DHT22;38377;47.418;18.882;2024-01-15T14:54:03;3.50;89.10
38380;DHT22;38377;47.418;18.882;2024-01-15T14:56:28;3.40;89.50
38380;DHT22;38377;47.418;18.882;2024-01-15T14:58:54;3.30;89.80
38380;DHT22;38377;47.418;18.882;2024-01-15T15:01:20;3.30;90.10
38380;DHT22;38377;47.418;18.882;2024-01-15T15:03:45;3.20;90.10
38380;DHT22;38377;47.418;18.882;2024-01-15T15:06:11;3.20;90.30
38380;DHT22;38377;47.418;18.882;2024-01-15T15:08:37;3.10;90.40
38380;DHT22;38377;47.418;18.882;2024-01-15T15:11:04;3.10;90.50
38380;DHT22;38377;47.418;18.882;2024-01-15T15:13:29;3.10;90.30
38380;DHT22;38377;47.418;18.882;2024-01-15T15:15:55;3.10;90.20
38380;DHT22;38377;47.418;18.882;2024-01-15T15:18:21;3.00;90.30
38380;DHT22;38377;47.418;18.882;2024-01-15T15:20:48;3.00;90.60
38380;DHT22;38377;47.418;18.882;2024-01-15T15:23:14;2.90;90.40
38380;DHT22;38377;47.418;18.882;2024-01-15T15:25:39;2.90;90.70
38380;DHT22;38377;47.418;18.882;2024-01-15T15:28:05;2.80;90.80
38380;DHT22;38377;47.418;18.882;2024-01-15T15:30:31;2.80;90.90
38380;DHT22;38377;47.418;18.882;2024-01-15T15:32:56;2.70;91.00
38380;DHT22;38377;47.418;18.882;2024-01-15T15:35:22;2.70;91.10
38380;DHT22;38377;47.418;18.882;2024-01-15T15:37:48;2.70;91.10
38380;DHT22;38377;47.418;18.882;2024-01-15T15:40:13;2.70;91.20